Wrangell, Alaska
Current Conditions -  °F | °C
As of 9:16 AM on Saturday 25 Oct 2014 (Local Time) from PAWG Reporting Station
Scattered Clouds Scattered Clouds  
Wind Chill: 37°   Ceiling: Unl
Heat Index: 43°   Visibility: 10mi
Dew Point: 37°   Wind: 12mph
Humidity: 81%   Direction: 320°NW
Pressure: 29.72"   Gusts: NA
Location:  56.47°N, 132.38°W
Report Text: PAWG 251716Z 32010KT 10SM FEW015 SCT090 06/03 A2972 RMK AO1 WEA:NONE (KB)
Loading
Personal Weather Stations






























Interactive Weather Map
Tropical Storm Tracking
New forecast layout! Learn more

10-Day Weather Forecast

Advertisements
Track Severe Weather on mobile